createdAt,value
2022-10-07T00:00:56.106Z,102774.72
2022-10-07T00:03:26.983Z,102783.38
2022-10-07T00:06:14.763Z,102791.66
2022-10-07T00:08:44.411Z,102780.84
2022-10-07T00:11:16.770Z,102769.56
2022-10-07T00:13:45.301Z,102779.88
2022-10-07T00:16:17.346Z,102763.25
2022-10-07T00:18:44.716Z,102778.22
2022-10-07T00:21:14.350Z,102763.16
2022-10-07T00:23:42.784Z,102762.75
2022-10-07T00:26:13.111Z,102763.81
2022-10-07T00:28:40.281Z,102762.94
2022-10-07T00:31:15.488Z,102740.25
2022-10-07T00:33:45.867Z,102763.03
2022-10-07T00:36:19.369Z,102759.41
2022-10-07T00:38:50.637Z,102752.44
2022-10-07T00:41:21.919Z,102753.19
2022-10-07T00:43:48.877Z,102750.56
2022-10-07T00:46:30.614Z,102740.75
2022-10-07T00:49:02.944Z,102737.44
2022-10-07T00:51:31.536Z,102743.78
2022-10-07T00:53:58.341Z,102746.59
2022-10-07T00:56:29.438Z,102740.25
2022-10-07T00:58:58.955Z,102739.50
2022-10-07T01:01:26.741Z,102728.00
2022-10-07T01:03:54.258Z,102667.63
2022-10-07T01:06:20.975Z,102729.88
2022-10-07T01:08:52.797Z,102725.19
2022-10-07T01:11:37.906Z,102728.13
2022-10-07T01:14:45.903Z,102717.31
2022-10-07T01:17:25.563Z,102712.72
2022-10-07T01:20:31.478Z,102714.69
2022-10-07T01:23:22.283Z,102715.66
2022-10-07T01:26:07.825Z,102705.72
2022-10-07T01:28:40.288Z,102668.09
2022-10-07T01:31:13.737Z,102700.28
2022-10-07T01:33:45.697Z,102684.22
2022-10-07T01:36:18.130Z,102652.59
2022-10-07T01:38:53.142Z,102686.84
2022-10-07T01:41:23.116Z,102670.41
2022-10-07T01:43:54.165Z,102668.63
2022-10-07T01:46:28.621Z,102663.28
2022-10-07T01:48:55.226Z,102666.31
2022-10-07T01:51:28.598Z,102664.69
2022-10-07T01:54:08.519Z,102661.75
2022-10-07T01:56:56.756Z,102657.25
2022-10-07T01:59:53.271Z,102654.72
2022-10-07T02:02:41.578Z,102652.00
2022-10-07T02:05:27.271Z,102649.38
2022-10-07T02:08:20.403Z,102650.38
2022-10-07T02:10:56.882Z,102649.59
2022-10-07T02:13:50.971Z,102645.13
2022-10-07T02:16:37.816Z,102638.88
2022-10-07T02:19:11.058Z,102632.84
2022-10-07T02:21:41.339Z,102618.75
2022-10-07T02:24:12.611Z,102629.94
2022-10-07T02:26:43.617Z,102632.75
2022-10-07T02:29:12.639Z,102619.63
2022-10-07T02:31:41.750Z,102618.38
2022-10-07T02:34:18.876Z,102623.06
2022-10-07T02:36:51.723Z,102610.28
2022-10-07T02:39:21.681Z,102604.38
2022-10-07T02:42:07.234Z,102598.63
2022-10-07T02:44:51.748Z,102605.03
2022-10-07T02:47:36.342Z,102591.72
2022-10-07T02:50:10.853Z,102568.13
2022-10-07T02:52:38.950Z,102578.13
2022-10-07T02:55:09.732Z,102589.88
2022-10-07T02:57:44.590Z,102561.31
2022-10-07T03:00:12.762Z,102586.56
2022-10-07T03:02:45.122Z,102589.28
2022-10-07T03:05:19.617Z,102574.25
2022-10-07T03:07:53.426Z,102579.69
2022-10-07T03:10:22.453Z,102581.31
2022-10-07T03:12:50.493Z,102585.91
2022-10-07T03:15:17.172Z,102576.28
2022-10-07T03:17:43.964Z,102574.25
2022-10-07T03:20:15.113Z,102567.13
2022-10-07T03:22:45.063Z,102565.50
2022-10-07T03:25:12.725Z,102566.25
2022-10-07T03:27:39.901Z,102566.34
2022-10-07T03:30:07.408Z,102552.75
2022-10-07T03:32:34.292Z,102554.13
2022-10-07T03:35:00.959Z,102563.72
2022-10-07T03:37:32.885Z,102561.09
2022-10-07T03:39:59.509Z,102554.03
2022-10-07T03:42:26.056Z,102542.63
2022-10-07T03:44:52.747Z,102540.00
2022-10-07T03:47:21.357Z,102547.97
2022-10-07T03:49:50.452Z,102505.06
2022-10-07T03:52:21.785Z,102545.25
2022-10-07T03:54:48.311Z,102547.13
2022-10-07T03:57:33.513Z,102542.97
2022-10-07T04:00:00.072Z,102545.34
2022-10-07T04:02:27.900Z,102534.47
2022-10-07T04:04:59.272Z,102530.88
2022-10-07T04:07:28.378Z,102534.00
2022-10-07T04:09:55.011Z,102531.28
2022-10-07T04:12:21.623Z,102535.75
2022-10-07T04:14:50.440Z,102524.28
2022-10-07T04:17:20.392Z,102533.13
2022-10-07T04:19:46.909Z,102529.53
2022-10-07T04:22:13.478Z,102526.91
2022-10-07T04:24:40.142Z,102531.47
2022-10-07T04:27:06.686Z,102531.47
2022-10-07T04:29:39.148Z,102531.56
2022-10-07T04:32:05.919Z,102526.13
2022-10-07T04:34:32.579Z,102519.44
2022-10-07T04:37:01.082Z,102529.84
2022-10-07T04:39:49.048Z,102528.09
2022-10-07T04:42:34.544Z,102522.06
2022-10-07T04:45:03.581Z,102529.06
2022-10-07T04:47:30.111Z,102527.22
2022-10-07T04:49:56.872Z,102525.47
2022-10-07T04:52:28.288Z,102484.84
2022-10-07T04:54:54.968Z,102521.09
2022-10-07T04:57:21.508Z,102514.66
2022-10-07T04:59:48.057Z,102517.38
2022-10-07T05:02:16.952Z,102513.81
2022-10-07T05:04:45.975Z,102515.66
2022-10-07T05:07:12.583Z,102504.66
2022-10-07T05:09:39.207Z,102515.56
2022-10-07T05:12:06.550Z,102511.94
2022-10-07T05:14:33.793Z,102520.22
2022-10-07T05:17:04.133Z,102511.06
2022-10-07T05:19:30.764Z,102509.50
2022-10-07T05:21:59.740Z,102497.94
2022-10-07T05:24:26.441Z,102509.41
2022-10-07T05:26:55.297Z,102506.69
2022-10-07T05:29:22.138Z,102496.78
2022-10-07T05:31:51.623Z,102493.06
2022-10-07T05:34:18.214Z,102492.31
2022-10-07T05:36:44.850Z,102493.19
2022-10-07T05:39:14.617Z,102486.88
2022-10-07T05:41:45.670Z,102480.75
2022-10-07T05:44:12.818Z,102497.84
2022-10-07T05:46:42.155Z,102483.78
2022-10-07T05:49:08.816Z,102492.31
2022-10-07T05:51:35.487Z,102491.44
2022-10-07T05:54:04.329Z,102485.91
2022-10-07T05:56:30.986Z,102485.81
2022-10-07T05:58:59.785Z,102480.38
2022-10-07T06:01:28.095Z,102473.72
2022-10-07T06:03:57.280Z,102448.28
2022-10-07T06:06:26.901Z,102475.38
2022-10-07T06:08:53.837Z,102476.06
2022-10-07T06:11:39.360Z,102476.06
2022-10-07T06:14:06.729Z,102474.09
2022-10-07T06:16:33.728Z,102468.34
2022-10-07T06:19:00.359Z,102473.69
2022-10-07T06:21:28.278Z,102471.53
2022-10-07T06:23:56.803Z,102433.66
2022-10-07T06:26:26.229Z,102471.03
2022-10-07T06:28:55.383Z,102468.97
2022-10-07T06:31:24.739Z,102452.81
2022-10-07T06:33:51.829Z,102457.50
2022-10-07T06:36:19.092Z,102452.63
2022-10-07T06:38:50.084Z,102470.78
2022-10-07T06:41:17.190Z,102472.97
2022-10-07T06:43:46.496Z,102467.09
2022-10-07T06:46:18.006Z,102472.78
2022-10-07T06:48:50.491Z,102473.38
2022-10-07T06:51:24.428Z,102477.41
2022-10-07T06:53:53.570Z,102375.59
2022-10-07T06:56:22.602Z,102477.63
2022-10-07T06:58:49.921Z,102472.06
2022-10-07T07:01:16.926Z,102473.53
2022-10-07T07:03:45.872Z,102472.19
2022-10-07T07:06:12.590Z,102478.31
2022-10-07T07:08:43.719Z,102472.75
2022-10-07T07:11:32.541Z,102475.91
2022-10-07T07:13:59.347Z,102480.09
2022-10-07T07:16:26.743Z,102473.53
2022-10-07T07:18:57.441Z,102479.22
2022-10-07T07:21:28.848Z,102474.44
2022-10-07T07:23:58.876Z,102471.38
2022-10-07T07:26:25.574Z,102473.97
2022-10-07T07:29:00.653Z,102474.97
2022-10-07T07:31:29.377Z,102465.53
2022-10-07T07:34:01.902Z,102468.69
2022-10-07T07:36:30.323Z,102448.19
2022-10-07T07:38:59.710Z,102459.09
2022-10-07T07:41:30.134Z,102461.38
2022-10-07T07:43:58.729Z,102444.22
2022-10-07T07:46:33.205Z,102467.03
2022-10-07T07:48:59.794Z,102462.97
2022-10-07T07:51:26.362Z,102458.81
2022-10-07T07:53:52.950Z,102459.00
2022-10-07T07:56:20.832Z,102454.34
2022-10-07T07:58:47.526Z,102463.41
2022-10-07T08:01:17.927Z,102457.03
2022-10-07T08:03:46.781Z,102454.50
2022-10-07T08:06:15.260Z,102450.13
2022-10-07T08:08:44.618Z,102452.72
2022-10-07T08:11:16.206Z,102447.03
2022-10-07T08:13:43.318Z,102447.28
2022-10-07T08:16:14.341Z,102436.13
2022-10-07T08:18:42.745Z,102411.16
2022-10-07T08:21:10.804Z,102437.38
2022-10-07T08:23:39.156Z,102402.13
2022-10-07T08:26:07.862Z,102436.03
2022-10-07T08:28:35.879Z,102428.38
2022-10-07T08:31:05.158Z,102430.88
2022-10-07T08:33:39.948Z,102418.06
2022-10-07T08:36:13.648Z,102420.72
2022-10-07T08:38:51.816Z,102424.78
2022-10-07T08:41:59.215Z,102385.66
2022-10-07T08:44:37.706Z,102413.28
2022-10-07T08:47:27.474Z,102406.38
2022-10-07T08:50:24.573Z,102400.13
2022-10-07T08:53:01.895Z,102388.94
2022-10-07T08:55:36.395Z,102395.59
2022-10-07T08:58:34.664Z,102397.88
2022-10-07T09:01:20.440Z,102387.22
2022-10-07T09:04:10.701Z,102393.88
2022-10-07T09:06:52.566Z,102378.97
2022-10-07T09:09:32.581Z,102372.69
2022-10-07T09:12:04.005Z,102372.56
2022-10-07T09:14:41.977Z,102380.28
2022-10-07T09:17:35.194Z,102358.09
2022-10-07T09:20:16.754Z,102316.25
2022-10-07T09:22:51.008Z,102372.81
2022-10-07T09:25:24.149Z,102371.47
2022-10-07T09:27:52.272Z,102376.53
2022-10-07T09:30:20.694Z,102371.28
2022-10-07T09:32:50.224Z,102354.34
2022-10-07T09:35:21.159Z,102368.16
2022-10-07T09:38:10.090Z,102355.69
2022-10-07T09:41:04.338Z,102359.88
2022-10-07T09:43:34.678Z,102353.41
2022-10-07T09:46:01.572Z,102360.88
2022-10-07T09:48:34.306Z,102347.88
2022-10-07T09:51:19.196Z,102345.19
2022-10-07T09:54:08.693Z,102316.63
2022-10-07T09:56:39.843Z,102337.78
2022-10-07T09:59:36.928Z,102333.78
2022-10-07T10:02:26.035Z,102326.47
2022-10-07T10:04:57.429Z,102333.63
2022-10-07T10:07:28.665Z,102326.28
2022-10-07T10:09:58.784Z,102295.03
2022-10-07T10:12:28.252Z,102327.19
2022-10-07T10:14:58.778Z,102324.13
2022-10-07T10:17:36.510Z,102320.38
2022-10-07T10:20:29.994Z,102318.16
2022-10-07T10:23:00.452Z,102313.84
2022-10-07T10:26:18.021Z,102310.09
2022-10-07T10:29:05.647Z,102310.28
2022-10-07T10:31:50.689Z,102303.91
2022-10-07T10:34:17.164Z,102299.06
2022-10-07T10:36:48.307Z,102298.09
2022-10-07T10:39:31.525Z,102270.81
2022-10-07T10:42:06.994Z,102280.50
2022-10-07T10:44:51.709Z,102278.09
2022-10-07T10:47:33.647Z,102277.91
2022-10-07T10:50:23.720Z,102266.69
2022-10-07T10:53:15.348Z,102265.47
2022-10-07T10:56:10.419Z,102263.19
2022-10-07T10:59:11.776Z,102258.19
2022-10-07T11:01:41.947Z,102256.63
2022-10-07T11:04:26.867Z,102257.31
2022-10-07T11:06:59.900Z,102251.78
2022-10-07T11:09:37.278Z,102240.38
2022-10-07T11:12:21.245Z,102240.00
2022-10-07T11:14:57.615Z,102244.50
2022-10-07T11:17:31.476Z,102225.94
2022-10-07T11:20:14.472Z,102231.22
2022-10-07T11:22:49.077Z,102215.06
2022-10-07T11:25:28.984Z,102224.81
2022-10-07T11:28:07.197Z,102223.31
2022-10-07T11:30:45.565Z,102211.16
2022-10-07T11:33:19.143Z,102202.28
2022-10-07T11:36:03.375Z,102181.34
2022-10-07T11:38:36.509Z,102190.75
2022-10-07T11:41:31.146Z,102194.31
2022-10-07T11:44:03.979Z,102181.09
2022-10-07T11:46:39.428Z,102180.53
2022-10-07T11:49:18.236Z,102175.50
2022-10-07T11:52:21.898Z,102173.63
2022-10-07T11:55:00.659Z,102165.13
2022-10-07T11:57:31.854Z,102134.91
2022-10-07T12:00:23.451Z,102106.06
2022-10-07T12:02:51.100Z,102157.91
2022-10-07T12:05:36.520Z,102140.44
2022-10-07T12:08:24.738Z,102138.31
2022-10-07T12:10:59.189Z,102133.19
2022-10-07T12:13:38.033Z,102118.22
2022-10-07T12:16:25.937Z,102111.53
2022-10-07T12:19:08.056Z,102111.41
2022-10-07T12:22:00.578Z,102113.78
2022-10-07T12:24:28.107Z,102098.59
2022-10-07T12:27:06.890Z,102087.19
2022-10-07T12:30:02.310Z,102085.56
2022-10-07T12:32:56.402Z,102089.69
2022-10-07T12:35:35.048Z,102081.81
2022-10-07T12:38:10.743Z,102080.28
2022-10-07T12:40:44.876Z,102083.03
2022-10-07T12:43:34.613Z,102067.63
2022-10-07T12:46:05.914Z,102059.72
2022-10-07T12:48:41.651Z,102063.06
2022-10-07T12:51:19.601Z,102063.84
2022-10-07T12:53:48.737Z,102058.53
2022-10-07T12:56:23.753Z,102050.72
2022-10-07T12:59:15.878Z,102055.25
2022-10-07T13:01:42.458Z,102052.66
2022-10-07T13:04:47.544Z,102040.59
2022-10-07T13:07:17.209Z,102043.75
2022-10-07T13:09:46.801Z,102043.69
2022-10-07T13:12:44.768Z,102034.69
2022-10-07T13:15:27.890Z,102026.28
2022-10-07T13:18:10.488Z,102033.63
2022-10-07T13:20:55.102Z,102024.34
2022-10-07T13:23:27.245Z,102018.16
2022-10-07T13:25:57.529Z,102014.78
2022-10-07T13:28:26.764Z,102022.03
2022-10-07T13:30:53.834Z,102001.28
2022-10-07T13:33:28.445Z,101980.19
2022-10-07T13:36:07.910Z,102005.81
2022-10-07T13:38:35.063Z,101993.16
2022-10-07T13:41:24.925Z,101999.41
2022-10-07T13:43:54.380Z,101986.94
2022-10-07T13:46:23.876Z,101989.25
2022-10-07T13:48:51.457Z,101991.19
2022-10-07T13:51:28.980Z,101952.34
2022-10-07T13:53:58.369Z,101979.41
2022-10-07T13:56:50.472Z,101975.03
2022-10-07T13:59:18.590Z,101978.94
2022-10-07T14:01:48.926Z,101963.91
2022-10-07T14:04:21.500Z,101969.44
2022-10-07T14:06:58.705Z,101966.41
2022-10-07T14:09:35.962Z,101959.25
2022-10-07T14:12:09.187Z,101955.97
2022-10-07T14:14:38.601Z,101925.25
2022-10-07T14:17:32.677Z,101942.81
2022-10-07T14:20:05.656Z,101932.53
2022-10-07T14:22:43.967Z,101947.63
2022-10-07T14:25:21.145Z,101938.34
2022-10-07T14:27:58.449Z,101943.00
2022-10-07T14:30:55.757Z,101935.94
2022-10-07T14:33:58.769Z,101929.25
2022-10-07T14:36:26.451Z,101924.06
2022-10-07T14:38:55.774Z,101924.19
2022-10-07T14:41:27.234Z,101926.47
2022-10-07T14:44:00.288Z,101923.31
2022-10-07T14:46:28.199Z,101918.84
2022-10-07T14:48:55.303Z,101921.81
2022-10-07T14:51:26.989Z,101910.81
2022-10-07T14:53:59.395Z,101904.88
2022-10-07T14:56:31.347Z,101907.53
2022-10-07T14:58:57.890Z,101911.94
2022-10-07T15:01:26.682Z,101884.88
2022-10-07T15:03:53.235Z,101908.25
2022-10-07T15:06:20.597Z,101907.28
2022-10-07T15:08:48.602Z,101900.38
2022-10-07T15:11:16.725Z,101905.56
2022-10-07T15:13:43.523Z,101898.50
2022-10-07T15:16:19.490Z,101887.97
2022-10-07T15:18:52.436Z,101893.78
2022-10-07T15:21:21.673Z,101886.34
2022-10-07T15:23:53.224Z,101886.59
2022-10-07T15:26:23.652Z,101879.03
2022-10-07T15:28:56.389Z,101871.66
2022-10-07T15:31:26.157Z,101874.31
2022-10-07T15:33:56.441Z,101867.78
2022-10-07T15:36:29.071Z,101867.31
2022-10-07T15:38:58.875Z,101863.84
2022-10-07T15:41:30.202Z,101851.06
2022-10-07T15:43:59.023Z,101856.84
2022-10-07T15:46:25.897Z,101859.69
2022-10-07T15:48:56.826Z,101856.59
2022-10-07T15:51:31.160Z,101840.31
2022-10-07T15:53:58.515Z,101849.25
2022-10-07T15:56:25.534Z,101847.22
2022-10-07T15:58:53.234Z,101846.41
2022-10-07T16:01:20.312Z,101848.66
2022-10-07T16:03:49.421Z,101841.28
2022-10-07T16:06:23.789Z,101843.50
2022-10-07T16:08:51.268Z,101838.72
2022-10-07T16:11:18.043Z,101835.47
2022-10-07T16:13:48.743Z,101839.47
2022-10-07T16:16:20.633Z,101839.56
2022-10-07T16:18:49.238Z,101836.09
2022-10-07T16:21:30.377Z,101809.38
2022-10-07T16:24:02.621Z,101833.13
2022-10-07T16:26:30.315Z,101831.28
2022-10-07T16:29:17.965Z,101835.44
2022-10-07T16:31:46.634Z,101829.09
2022-10-07T16:34:15.383Z,101839.44
2022-10-07T16:36:45.747Z,101832.91
2022-10-07T16:39:13.038Z,101838.44
2022-10-07T16:41:45.683Z,101849.47
2022-10-07T16:44:13.208Z,101842.91
2022-10-07T16:46:40.562Z,101838.41
2022-10-07T16:49:09.107Z,101834.63
2022-10-07T16:51:39.453Z,101835.66
2022-10-07T16:54:15.984Z,101842.91
2022-10-07T16:56:48.330Z,101834.97
2022-10-07T16:59:23.205Z,101826.34
2022-10-07T17:01:55.378Z,101843.56
2022-10-07T17:04:22.864Z,101821.47
2022-10-07T17:06:55.226Z,101832.16
2022-10-07T17:09:24.571Z,101834.91
2022-10-07T17:11:53.524Z,101835.41
2022-10-07T17:14:21.961Z,101835.19
2022-10-07T17:16:51.317Z,101831.69
2022-10-07T17:19:20.283Z,101823.41
2022-10-07T17:21:48.294Z,101830.81
2022-10-07T17:24:16.266Z,101826.81
2022-10-07T17:26:43.691Z,101831.97
2022-10-07T17:29:12.745Z,101833.66
2022-10-07T17:31:43.390Z,101823.13
2022-10-07T17:34:11.416Z,101828.28
2022-10-07T17:36:40.269Z,101745.06
2022-10-07T17:39:07.061Z,101824.22
2022-10-07T17:41:35.879Z,101834.41
2022-10-07T17:44:09.978Z,101834.88
2022-10-07T17:46:39.952Z,101832.44
2022-10-07T17:49:13.501Z,101824.16
2022-10-07T17:51:48.468Z,101828.63
2022-10-07T17:54:15.150Z,101825.31
2022-10-07T17:56:44.586Z,101832.03
2022-10-07T17:59:14.295Z,101831.50
2022-10-07T18:01:44.510Z,101826.97
2022-10-07T18:04:15.506Z,101819.72
2022-10-07T18:06:43.624Z,101833.47
2022-10-07T18:09:15.205Z,101832.78
2022-10-07T18:12:00.556Z,101831.34
2022-10-07T18:14:53.281Z,101837.53
2022-10-07T18:17:20.811Z,101838.66
2022-10-07T18:19:49.470Z,101829.88
2022-10-07T18:22:16.041Z,101825.69
2022-10-07T18:24:42.737Z,101828.59
2022-10-07T18:27:09.297Z,101821.72
2022-10-07T18:29:38.279Z,101829.25
2022-10-07T18:32:06.494Z,101817.88
2022-10-07T18:34:33.244Z,101816.47
2022-10-07T18:37:00.548Z,101817.78
2022-10-07T18:39:29.640Z,101824.03
2022-10-07T18:41:56.831Z,101827.94
2022-10-07T18:44:23.667Z,101820.16
2022-10-07T18:46:50.937Z,101823.22
2022-10-07T18:49:22.207Z,101825.44
2022-10-07T18:51:50.726Z,101821.25
2022-10-07T18:54:21.178Z,101824.31
2022-10-07T18:56:49.117Z,101823.78
2022-10-07T18:59:16.355Z,101817.88
2022-10-07T19:01:47.795Z,101816.66
2022-10-07T19:04:16.662Z,101832.41
2022-10-07T19:06:45.276Z,101829.09
2022-10-07T19:09:22.628Z,101826.66
2022-10-07T19:11:49.966Z,101828.16
2022-10-07T19:14:16.599Z,101823.13
2022-10-07T19:16:49.261Z,101820.38
2022-10-07T19:19:21.441Z,101812.22
2022-10-07T19:21:51.780Z,101811.34
2022-10-07T19:24:19.514Z,101810.06
2022-10-07T19:26:48.921Z,101816.72
2022-10-07T19:29:18.492Z,101810.13
2022-10-07T19:31:48.735Z,101809.44
2022-10-07T19:34:24.803Z,101801.22
2022-10-07T19:36:51.530Z,101812.06
2022-10-07T19:39:21.031Z,101800.97
2022-10-07T19:41:48.630Z,101799.22
2022-10-07T19:44:16.340Z,101805.88
2022-10-07T19:46:43.006Z,101799.84
2022-10-07T19:49:10.430Z,101801.88
2022-10-07T19:51:38.857Z,101792.94
2022-10-07T19:54:10.749Z,101792.34
2022-10-07T19:56:38.239Z,101785.59
2022-10-07T19:59:10.261Z,101788.19
2022-10-07T20:01:42.202Z,101788.50
2022-10-07T20:04:14.182Z,101777.81
2022-10-07T20:06:41.264Z,101774.97
2022-10-07T20:09:10.631Z,101782.91
2022-10-07T20:11:37.221Z,101787.69
2022-10-07T20:14:05.880Z,101778.72
2022-10-07T20:16:33.889Z,101770.63
2022-10-07T20:19:05.796Z,101768.03
2022-10-07T20:21:35.457Z,101775.56
2022-10-07T20:24:02.185Z,101761.03
2022-10-07T20:26:31.285Z,101780.78
2022-10-07T20:29:00.933Z,101777.34
2022-10-07T20:31:32.960Z,101774.03
2022-10-07T20:34:02.829Z,101768.72
2022-10-07T20:36:32.562Z,101759.72
2022-10-07T20:39:19.636Z,101766.41
2022-10-07T20:42:05.016Z,101766.84
2022-10-07T20:44:31.760Z,101755.91
2022-10-07T20:46:58.352Z,101762.97
2022-10-07T20:49:33.736Z,101753.31
2022-10-07T20:52:02.283Z,101761.41
2022-10-07T20:54:32.687Z,101761.53
2022-10-07T20:57:00.148Z,101766.31
2022-10-07T20:59:28.065Z,101761.41
2022-10-07T21:01:54.807Z,101764.88
2022-10-07T21:04:21.739Z,101771.50
2022-10-07T21:06:51.373Z,101765.31
2022-10-07T21:09:19.073Z,101724.69
2022-10-07T21:11:47.163Z,101756.81
2022-10-07T21:14:14.542Z,101750.63
2022-10-07T21:16:43.698Z,101759.00
2022-10-07T21:19:10.286Z,101752.94
2022-10-07T21:21:36.876Z,101756.13
2022-10-07T21:24:03.632Z,101756.41
2022-10-07T21:26:30.226Z,101726.13
2022-10-07T21:28:56.780Z,101744.88
2022-10-07T21:31:23.516Z,101745.19
2022-10-07T21:33:51.485Z,101697.00
2022-10-07T21:36:24.288Z,101742.00
2022-10-07T21:38:58.852Z,101736.97
2022-10-07T21:41:31.571Z,101742.28
2022-10-07T21:43:58.643Z,101738.94
2022-10-07T21:46:27.046Z,101732.72
2022-10-07T21:48:56.112Z,101734.75
2022-10-07T21:51:23.494Z,101732.47
2022-10-07T21:53:53.950Z,101727.25
2022-10-07T21:56:25.267Z,101725.56
2022-10-07T21:58:55.168Z,101722.06
2022-10-07T22:01:27.619Z,101724.97
2022-10-07T22:03:56.449Z,101718.91
2022-10-07T22:06:43.358Z,101684.31
2022-10-07T22:09:10.906Z,101711.13
2022-10-07T22:11:40.314Z,101718.50
2022-10-07T22:14:12.070Z,101716.59
2022-10-07T22:16:39.354Z,101707.53
2022-10-07T22:19:06.518Z,101703.34
2022-10-07T22:21:35.800Z,101699.59
2022-10-07T22:24:05.160Z,101699.00
2022-10-07T22:26:37.917Z,101695.97
2022-10-07T22:29:09.533Z,101695.97
2022-10-07T22:31:37.346Z,101698.72
2022-10-07T22:34:06.117Z,101687.91
2022-10-07T22:36:32.740Z,101695.69
2022-10-07T22:39:00.057Z,101695.53
2022-10-07T22:41:26.742Z,101691.63
2022-10-07T22:43:53.785Z,101686.75
2022-10-07T22:46:28.867Z,101685.16
2022-10-07T22:48:58.096Z,101679.22
2022-10-07T22:51:29.124Z,101677.34
2022-10-07T22:53:56.854Z,101677.59
2022-10-07T22:56:25.833Z,101669.09
2022-10-07T22:58:58.869Z,101674.13
2022-10-07T23:01:31.245Z,101673.84
2022-10-07T23:04:03.425Z,101674.53
2022-10-07T23:06:35.117Z,101670.06
2022-10-07T23:09:05.233Z,101676.13
2022-10-07T23:11:32.106Z,101665.88
2022-10-07T23:13:59.391Z,101681.88
2022-10-07T23:16:30.400Z,101674.50
2022-10-07T23:18:58.642Z,101671.47
2022-10-07T23:21:28.003Z,101670.44
2022-10-07T23:24:06.846Z,101633.72
2022-10-07T23:26:35.041Z,101646.06
2022-10-07T23:29:02.767Z,101654.41
2022-10-07T23:31:31.809Z,101657.00
2022-10-07T23:33:59.421Z,101648.63
2022-10-07T23:36:26.901Z,101641.53
2022-10-07T23:38:56.226Z,101640.59
2022-10-07T23:41:25.765Z,101635.00
2022-10-07T23:43:54.517Z,101649.88
2022-10-07T23:46:22.737Z,101626.56
2022-10-07T23:48:52.145Z,101629.75
2022-10-07T23:51:21.725Z,101642.13
2022-10-07T23:53:49.021Z,101645.16
2022-10-07T23:56:16.056Z,101633.94
2022-10-07T23:58:42.593Z,101641.41
